sensor_id;sensor_type;location;lat;lon;timestamp;temperature;humidity
9975;DHT22;5028;50.974;4.968;2023-06-04T00:00:34;14.70;99.70
9975;DHT22;5028;50.974;4.968;2023-06-04T00:03:03;14.60;99.70
9975;DHT22;5028;50.974;4.968;2023-06-04T00:05:32;14.50;99.90
9975;DHT22;5028;50.974;4.968;2023-06-04T00:08:01;14.40;99.80
9975;DHT22;5028;50.974;4.968;2023-06-04T00:10:29;14.40;99.90
9975;DHT22;5028;50.974;4.968;2023-06-04T00:12:59;14.30;99.90
9975;DHT22;5028;50.974;4.968;2023-06-04T00:15:28;14.30;99.90
9975;DHT22;5028;50.974;4.968;2023-06-04T00:17:59;14.20;99.90
9975;DHT22;5028;50.974;4.968;2023-06-04T00:20:27;14.10;99.90
9975;DHT22;5028;50.974;4.968;2023-06-04T00:22:56;14.10;99.90
9975;DHT22;5028;50.974;4.968;2023-06-04T00:25:25;14.00;99.90
9975;DHT22;5028;50.974;4.968;2023-06-04T00:27:53;14.00;99.90
9975;DHT22;5028;50.974;4.968;2023-06-04T00:30:22;13.90;99.90
9975;DHT22;5028;50.974;4.968;2023-06-04T00:32:51;13.80;99.90
9975;DHT22;5028;50.974;4.968;2023-06-04T00:35:21;13.80;99.90
9975;DHT22;5028;50.974;4.968;2023-06-04T00:37:50;13.70;99.90
9975;DHT22;5028;50.974;4.968;2023-06-04T00:40:19;13.70;99.90
9975;DHT22;5028;50.974;4.968;2023-06-04T00:42:48;13.70;99.90
9975;DHT22;5028;50.974;4.968;2023-06-04T00:45:16;13.60;99.90
9975;DHT22;5028;50.974;4.968;2023-06-04T00:47:47;13.60;99.90
9975;DHT22;5028;50.974;4.968;2023-06-04T00:50:16;13.60;99.90
9975;DHT22;5028;50.974;4.968;2023-06-04T00:52:47;13.50;99.90
9975;DHT22;5028;50.974;4.968;2023-06-04T00:55:16;13.50;99.90
9975;DHT22;5028;50.974;4.968;2023-06-04T00:57:45;13.40;99.90
9975;DHT22;5028;50.974;4.968;2023-06-04T01:00:14;13.40;99.90
9975;DHT22;5028;50.974;4.968;2023-06-04T01:02:45;13.40;99.90
9975;DHT22;5028;50.974;4.968;2023-06-04T01:05:24;13.30;99.90
9975;DHT22;5028;50.974;4.968;2023-06-04T01:08:00;13.30;99.90
9975;DHT22;5028;50.974;4.968;2023-06-04T01:10:29;13.30;99.90
9975;DHT22;5028;50.974;4.968;2023-06-04T01:12:57;13.20;99.90
9975;DHT22;5028;50.974;4.968;2023-06-04T01:15:26;13.20;99.90
9975;DHT22;5028;50.974;4.968;2023-06-04T01:17:59;13.10;99.90
9975;DHT22;5028;50.974;4.968;2023-06-04T01:20:34;13.10;99.90
9975;DHT22;5028;50.974;4.968;2023-06-04T01:23:26;13.00;99.90
9975;DHT22;5028;50.974;4.968;2023-06-04T01:26:01;13.00;99.90
9975;DHT22;5028;50.974;4.968;2023-06-04T01:28:33;12.90;99.90
9975;DHT22;5028;50.974;4.968;2023-06-04T01:31:03;12.90;99.90
9975;DHT22;5028;50.974;4.968;2023-06-04T01:33:35;12.80;99.90
9975;DHT22;5028;50.974;4.968;2023-06-04T01:36:04;12.70;99.90
9975;DHT22;5028;50.974;4.968;2023-06-04T01:38:34;12.60;99.90
9975;DHT22;5028;50.974;4.968;2023-06-04T01:41:03;12.60;99.90
9975;DHT22;5028;50.974;4.968;2023-06-04T01:43:32;12.50;99.90
9975;DHT22;5028;50.974;4.968;2023-06-04T01:46:02;12.50;99.90
9975;DHT22;5028;50.974;4.968;2023-06-04T01:48:31;12.40;99.90
9975;DHT22;5028;50.974;4.968;2023-06-04T01:51:00;12.40;99.90
9975;DHT22;5028;50.974;4.968;2023-06-04T01:53:29;12.30;99.90
9975;DHT22;5028;50.974;4.968;2023-06-04T01:56:00;12.30;99.90
9975;DHT22;5028;50.974;4.968;2023-06-04T01:58:28;12.20;99.90
9975;DHT22;5028;50.974;4.968;2023-06-04T02:00:59;12.20;99.90
9975;DHT22;5028;50.974;4.968;2023-06-04T02:03:30;12.20;99.90
9975;DHT22;5028;50.974;4.968;2023-06-04T02:06:05;12.20;99.90
9975;DHT22;5028;50.974;4.968;2023-06-04T02:08:35;12.10;99.90
9975;DHT22;5028;50.974;4.968;2023-06-04T02:11:05;12.10;99.90
9975;DHT22;5028;50.974;4.968;2023-06-04T02:13:34;12.10;99.90
9975;DHT22;5028;50.974;4.968;2023-06-04T02:16:04;12.00;99.90
9975;DHT22;5028;50.974;4.968;2023-06-04T02:18:33;12.00;99.90
9975;DHT22;5028;50.974;4.968;2023-06-04T02:21:01;12.00;99.90
9975;DHT22;5028;50.974;4.968;2023-06-04T02:23:30;11.90;99.90
9975;DHT22;5028;50.974;4.968;2023-06-04T02:25:59;11.90;99.90
9975;DHT22;5028;50.974;4.968;2023-06-04T02:28:30;11.90;99.90
9975;DHT22;5028;50.974;4.968;2023-06-04T02:30:58;11.90;99.90
9975;DHT22;5028;50.974;4.968;2023-06-04T02:33:28;11.90;99.90
9975;DHT22;5028;50.974;4.968;2023-06-04T02:35:57;11.80;99.90
9975;DHT22;5028;50.974;4.968;2023-06-04T02:38:26;11.80;99.90
9975;DHT22;5028;50.974;4.968;2023-06-04T02:40:54;11.80;99.90
9975;DHT22;5028;50.974;4.968;2023-06-04T02:43:23;11.80;99.90
9975;DHT22;5028;50.974;4.968;2023-06-04T02:45:53;11.80;99.90
9975;DHT22;5028;50.974;4.968;2023-06-04T02:48:22;11.80;99.90
9975;DHT22;5028;50.974;4.968;2023-06-04T02:50:51;11.80;99.90
9975;DHT22;5028;50.974;4.968;2023-06-04T02:53:19;11.80;99.90
9975;DHT22;5028;50.974;4.968;2023-06-04T02:55:49;11.80;99.90
9975;DHT22;5028;50.974;4.968;2023-06-04T02:58:19;11.70;99.90
9975;DHT22;5028;50.974;4.968;2023-06-04T03:00:53;11.70;99.90
9975;DHT22;5028;50.974;4.968;2023-06-04T03:03:22;11.70;99.90
9975;DHT22;5028;50.974;4.968;2023-06-04T03:05:51;11.70;99.90
9975;DHT22;5028;50.974;4.968;2023-06-04T03:08:20;11.70;99.90
9975;DHT22;5028;50.974;4.968;2023-06-04T03:10:50;11.70;99.90
9975;DHT22;5028;50.974;4.968;2023-06-04T03:13:19;11.60;99.90
9975;DHT22;5028;50.974;4.968;2023-06-04T03:15:48;11.60;99.90
9975;DHT22;5028;50.974;4.968;2023-06-04T03:18:20;11.60;99.90
9975;DHT22;5028;50.974;4.968;2023-06-04T03:20:49;11.60;99.90
9975;DHT22;5028;50.974;4.968;2023-06-04T03:23:18;11.60;99.90
9975;DHT22;5028;50.974;4.968;2023-06-04T03:25:47;11.60;99.90
9975;DHT22;5028;50.974;4.968;2023-06-04T03:28:16;11.60;99.90
9975;DHT22;5028;50.974;4.968;2023-06-04T03:30:45;11.50;99.90
9975;DHT22;5028;50.974;4.968;2023-06-04T03:33:14;11.50;99.90
9975;DHT22;5028;50.974;4.968;2023-06-04T03:35:44;11.50;99.90
9975;DHT22;5028;50.974;4.968;2023-06-04T03:38:12;11.40;99.90
9975;DHT22;5028;50.974;4.968;2023-06-04T03:40:42;11.40;99.90
9975;DHT22;5028;50.974;4.968;2023-06-04T03:43:10;11.40;99.90
9975;DHT22;5028;50.974;4.968;2023-06-04T03:45:39;11.40;99.90
9975;DHT22;5028;50.974;4.968;2023-06-04T03:48:08;11.40;99.90
9975;DHT22;5028;50.974;4.968;2023-06-04T03:50:36;11.40;99.90
9975;DHT22;5028;50.974;4.968;2023-06-04T03:53:07;11.50;99.90
9975;DHT22;5028;50.974;4.968;2023-06-04T03:55:36;11.50;99.90
9975;DHT22;5028;50.974;4.968;2023-06-04T03:58:05;11.50;99.90
9975;DHT22;5028;50.974;4.968;2023-06-04T04:00:36;11.50;99.90
9975;DHT22;5028;50.974;4.968;2023-06-04T04:03:05;11.50;99.90
9975;DHT22;5028;50.974;4.968;2023-06-04T04:05:37;11.50;99.90
9975;DHT22;5028;50.974;4.968;2023-06-04T04:08:07;11.50;99.90
9975;DHT22;5028;50.974;4.968;2023-06-04T04:10:35;11.50;99.90
9975;DHT22;5028;50.974;4.968;2023-06-04T04:13:04;11.50;99.90
9975;DHT22;5028;50.974;4.968;2023-06-04T04:15:33;11.50;99.90
9975;DHT22;5028;50.974;4.968;2023-06-04T04:18:02;11.50;99.90
9975;DHT22;5028;50.974;4.968;2023-06-04T04:20:31;11.60;99.90
9975;DHT22;5028;50.974;4.968;2023-06-04T04:23:00;11.60;99.90
9975;DHT22;5028;50.974;4.968;2023-06-04T04:25:30;11.60;99.90
9975;DHT22;5028;50.974;4.968;2023-06-04T04:27:59;11.60;99.90
9975;DHT22;5028;50.974;4.968;2023-06-04T04:30:29;11.60;99.90
9975;DHT22;5028;50.974;4.968;2023-06-04T04:33:00;11.70;99.90
9975;DHT22;5028;50.974;4.968;2023-06-04T04:35:29;11.70;99.90
9975;DHT22;5028;50.974;4.968;2023-06-04T04:38:00;11.80;99.90
9975;DHT22;5028;50.974;4.968;2023-06-04T04:40:32;11.90;99.90
9975;DHT22;5028;50.974;4.968;2023-06-04T04:43:01;11.90;99.90
9975;DHT22;5028;50.974;4.968;2023-06-04T04:45:30;12.00;99.90
9975;DHT22;5028;50.974;4.968;2023-06-04T04:47:59;12.10;99.90
9975;DHT22;5028;50.974;4.968;2023-06-04T04:50:28;12.10;99.90
9975;DHT22;5028;50.974;4.968;2023-06-04T04:52:58;12.20;99.90
9975;DHT22;5028;50.974;4.968;2023-06-04T04:55:28;12.20;99.90
9975;DHT22;5028;50.974;4.968;2023-06-04T04:58:01;12.30;99.90
9975;DHT22;5028;50.974;4.968;2023-06-04T05:00:29;12.40;99.90
9975;DHT22;5028;50.974;4.968;2023-06-04T05:02:58;12.50;99.90
9975;DHT22;5028;50.974;4.968;2023-06-04T05:05:27;12.50;99.90
9975;DHT22;5028;50.974;4.968;2023-06-04T05:07:56;12.50;99.90
9975;DHT22;5028;50.974;4.968;2023-06-04T05:10:25;12.60;99.90
9975;DHT22;5028;50.974;4.968;2023-06-04T05:12:54;12.60;99.90
9975;DHT22;5028;50.974;4.968;2023-06-04T05:15:25;12.70;99.90
9975;DHT22;5028;50.974;4.968;2023-06-04T05:17:54;12.80;99.90
9975;DHT22;5028;50.974;4.968;2023-06-04T05:20:23;12.80;99.90
9975;DHT22;5028;50.974;4.968;2023-06-04T05:22:52;12.90;99.90
9975;DHT22;5028;50.974;4.968;2023-06-04T05:25:22;13.00;99.90
9975;DHT22;5028;50.974;4.968;2023-06-04T05:27:51;13.10;99.90
9975;DHT22;5028;50.974;4.968;2023-06-04T05:30:21;13.30;99.90
9975;DHT22;5028;50.974;4.968;2023-06-04T05:32:51;13.50;99.90
9975;DHT22;5028;50.974;4.968;2023-06-04T05:35:20;13.60;99.90
9975;DHT22;5028;50.974;4.968;2023-06-04T05:37:49;13.70;99.90
9975;DHT22;5028;50.974;4.968;2023-06-04T05:40:21;13.90;99.90
9975;DHT22;5028;50.974;4.968;2023-06-04T05:42:50;13.90;99.90
9975;DHT22;5028;50.974;4.968;2023-06-04T05:45:19;14.00;99.90
9975;DHT22;5028;50.974;4.968;2023-06-04T05:47:48;14.10;99.90
9975;DHT22;5028;50.974;4.968;2023-06-04T05:50:18;14.20;99.90
9975;DHT22;5028;50.974;4.968;2023-06-04T05:52:46;14.30;99.90
9975;DHT22;5028;50.974;4.968;2023-06-04T05:55:15;14.50;99.90
9975;DHT22;5028;50.974;4.968;2023-06-04T05:57:45;14.60;99.90
9975;DHT22;5028;50.974;4.968;2023-06-04T06:00:14;14.80;99.90
9975;DHT22;5028;50.974;4.968;2023-06-04T06:02:43;14.70;99.90
9975;DHT22;5028;50.974;4.968;2023-06-04T06:05:12;14.80;99.90
9975;DHT22;5028;50.974;4.968;2023-06-04T06:07:42;15.00;99.90
9975;DHT22;5028;50.974;4.968;2023-06-04T06:10:12;15.20;99.90
9975;DHT22;5028;50.974;4.968;2023-06-04T06:12:42;15.20;99.90
9975;DHT22;5028;50.974;4.968;2023-06-04T06:15:11;15.50;99.90
9975;DHT22;5028;50.974;4.968;2023-06-04T06:17:40;15.70;99.90
9975;DHT22;5028;50.974;4.968;2023-06-04T06:20:10;15.80;99.90
9975;DHT22;5028;50.974;4.968;2023-06-04T06:22:42;15.80;99.90
9975;DHT22;5028;50.974;4.968;2023-06-04T06:25:11;15.90;99.90
9975;DHT22;5028;50.974;4.968;2023-06-04T06:27:43;16.00;99.90
9975;DHT22;5028;50.974;4.968;2023-06-04T06:30:12;16.00;99.90
9975;DHT22;5028;50.974;4.968;2023-06-04T06:32:41;16.00;99.90
9975;DHT22;5028;50.974;4.968;2023-06-04T06:35:09;16.00;99.90
9975;DHT22;5028;50.974;4.968;2023-06-04T06:37:38;16.10;99.90
9975;DHT22;5028;50.974;4.968;2023-06-04T06:40:11;16.20;99.90
9975;DHT22;5028;50.974;4.968;2023-06-04T06:42:40;16.10;99.90
9975;DHT22;5028;50.974;4.968;2023-06-04T06:45:10;16.20;99.90
9975;DHT22;5028;50.974;4.968;2023-06-04T06:47:39;16.00;99.90
9975;DHT22;5028;50.974;4.968;2023-06-04T06:50:08;16.10;99.90
9975;DHT22;5028;50.974;4.968;2023-06-04T06:52:38;16.10;99.90
9975;DHT22;5028;50.974;4.968;2023-06-04T06:55:07;16.20;99.90
9975;DHT22;5028;50.974;4.968;2023-06-04T06:57:38;16.30;99.90
9975;DHT22;5028;50.974;4.968;2023-06-04T07:00:08;16.30;99.90
9975;DHT22;5028;50.974;4.968;2023-06-04T07:02:37;16.30;99.90
9975;DHT22;5028;50.974;4.968;2023-06-04T07:05:06;16.30;99.90
9975;DHT22;5028;50.974;4.968;2023-06-04T07:07:35;16.30;99.90
9975;DHT22;5028;50.974;4.968;2023-06-04T07:10:04;16.50;99.90
9975;DHT22;5028;50.974;4.968;2023-06-04T07:12:33;16.60;99.90
9975;DHT22;5028;50.974;4.968;2023-06-04T07:15:04;16.50;99.90
9975;DHT22;5028;50.974;4.968;2023-06-04T07:17:33;16.60;99.90
9975;DHT22;5028;50.974;4.968;2023-06-04T07:20:01;16.70;99.90
9975;DHT22;5028;50.974;4.968;2023-06-04T07:22:30;16.80;99.90
9975;DHT22;5028;50.974;4.968;2023-06-04T07:24:59;16.80;99.90
9975;DHT22;5028;50.974;4.968;2023-06-04T07:27:28;16.90;99.90
9975;DHT22;5028;50.974;4.968;2023-06-04T07:29:57;17.00;99.90
9975;DHT22;5028;50.974;4.968;2023-06-04T07:32:27;17.10;99.90
9975;DHT22;5028;50.974;4.968;2023-06-04T07:34:56;17.20;99.90
9975;DHT22;5028;50.974;4.968;2023-06-04T07:37:25;17.20;99.90
9975;DHT22;5028;50.974;4.968;2023-06-04T07:39:54;17.30;99.90
9975;DHT22;5028;50.974;4.968;2023-06-04T07:42:22;17.50;99.90
9975;DHT22;5028;50.974;4.968;2023-06-04T07:44:51;17.60;99.90
9975;DHT22;5028;50.974;4.968;2023-06-04T07:47:20;17.70;99.90
9975;DHT22;5028;50.974;4.968;2023-06-04T07:49:50;17.70;99.90
9975;DHT22;5028;50.974;4.968;2023-06-04T07:52:29;17.80;99.90
9975;DHT22;5028;50.974;4.968;2023-06-04T07:54:59;18.00;99.90
9975;DHT22;5028;50.974;4.968;2023-06-04T07:57:28;18.00;99.90
9975;DHT22;5028;50.974;4.968;2023-06-04T07:59:57;18.10;99.90
9975;DHT22;5028;50.974;4.968;2023-06-04T08:02:26;18.20;99.90
9975;DHT22;5028;50.974;4.968;2023-06-04T08:04:56;18.40;99.90
9975;DHT22;5028;50.974;4.968;2023-06-04T08:07:25;18.60;99.90
9975;DHT22;5028;50.974;4.968;2023-06-04T08:09:54;18.80;99.90
9975;DHT22;5028;50.974;4.968;2023-06-04T08:12:23;19.00;99.90
9975;DHT22;5028;50.974;4.968;2023-06-04T08:14:52;19.30;99.90
9975;DHT22;5028;50.974;4.968;2023-06-04T08:17:24;19.30;99.90
9975;DHT22;5028;50.974;4.968;2023-06-04T08:19:53;19.20;99.90
9975;DHT22;5028;50.974;4.968;2023-06-04T08:22:23;19.20;99.90
9975;DHT22;5028;50.974;4.968;2023-06-04T08:24:51;19.40;99.90
9975;DHT22;5028;50.974;4.968;2023-06-04T08:27:22;19.60;99.90
9975;DHT22;5028;50.974;4.968;2023-06-04T08:29:51;19.90;99.90
9975;DHT22;5028;50.974;4.968;2023-06-04T08:32:20;20.20;99.90
9975;DHT22;5028;50.974;4.968;2023-06-04T08:34:49;20.30;99.90
9975;DHT22;5028;50.974;4.968;2023-06-04T08:37:18;20.20;99.90
9975;DHT22;5028;50.974;4.968;2023-06-04T08:39:48;20.10;99.90
9975;DHT22;5028;50.974;4.968;2023-06-04T08:42:22;20.20;99.90
9975;DHT22;5028;50.974;4.968;2023-06-04T08:44:51;20.50;99.90
9975;DHT22;5028;50.974;4.968;2023-06-04T08:47:24;20.80;99.90
9975;DHT22;5028;50.974;4.968;2023-06-04T08:49:58;20.90;99.50
9975;DHT22;5028;50.974;4.968;2023-06-04T08:52:29;20.90;99.40
9975;DHT22;5028;50.974;4.968;2023-06-04T08:54:59;20.90;99.30
9975;DHT22;5028;50.974;4.968;2023-06-04T08:57:30;21.10;99.00
9975;DHT22;5028;50.974;4.968;2023-06-04T08:59:59;21.10;98.90
9975;DHT22;5028;50.974;4.968;2023-06-04T09:02:29;21.20;99.40
9975;DHT22;5028;50.974;4.968;2023-06-04T09:04:58;21.40;99.00
9975;DHT22;5028;50.974;4.968;2023-06-04T09:07:30;21.60;99.00
9975;DHT22;5028;50.974;4.968;2023-06-04T09:10:01;21.70;98.20
9975;DHT22;5028;50.974;4.968;2023-06-04T09:12:42;21.70;97.50
9975;DHT22;5028;50.974;4.968;2023-06-04T09:15:10;22.10;97.30
9975;DHT22;5028;50.974;4.968;2023-06-04T09:17:39;22.10;97.50
9975;DHT22;5028;50.974;4.968;2023-06-04T09:20:17;21.90;97.50
9975;DHT22;5028;50.974;4.968;2023-06-04T09:22:46;22.10;97.80
9975;DHT22;5028;50.974;4.968;2023-06-04T09:25:21;22.20;96.80
9975;DHT22;5028;50.974;4.968;2023-06-04T09:27:50;22.40;96.60
9975;DHT22;5028;50.974;4.968;2023-06-04T09:30:19;22.70;96.80
9975;DHT22;5028;50.974;4.968;2023-06-04T09:32:48;23.20;96.40
9975;DHT22;5028;50.974;4.968;2023-06-04T09:35:18;23.50;96.30
9975;DHT22;5028;50.974;4.968;2023-06-04T09:37:53;23.60;95.60
9975;DHT22;5028;50.974;4.968;2023-06-04T09:40:35;23.60;95.60
9975;DHT22;5028;50.974;4.968;2023-06-04T09:43:04;23.50;94.50
9975;DHT22;5028;50.974;4.968;2023-06-04T09:45:34;23.20;95.10
9975;DHT22;5028;50.974;4.968;2023-06-04T09:48:03;23.10;95.80
9975;DHT22;5028;50.974;4.968;2023-06-04T09:50:36;23.10;96.00
9975;DHT22;5028;50.974;4.968;2023-06-04T09:53:13;23.10;94.60
9975;DHT22;5028;50.974;4.968;2023-06-04T09:55:44;22.80;94.80
9975;DHT22;5028;50.974;4.968;2023-06-04T09:58:13;22.80;94.50
9975;DHT22;5028;50.974;4.968;2023-06-04T10:00:45;23.10;94.10
9975;DHT22;5028;50.974;4.968;2023-06-04T10:03:15;23.40;94.70
9975;DHT22;5028;50.974;4.968;2023-06-04T10:05:48;23.90;94.10
9975;DHT22;5028;50.974;4.968;2023-06-04T10:08:17;23.80;93.70
9975;DHT22;5028;50.974;4.968;2023-06-04T10:10:50;23.60;93.90
9975;DHT22;5028;50.974;4.968;2023-06-04T10:13:22;23.70;93.80
9975;DHT22;5028;50.974;4.968;2023-06-04T10:15:52;24.00;93.60
9975;DHT22;5028;50.974;4.968;2023-06-04T10:18:22;23.70;93.80
9975;DHT22;5028;50.974;4.968;2023-06-04T10:20:53;23.80;93.80
9975;DHT22;5028;50.974;4.968;2023-06-04T10:23:23;23.80;93.40
9975;DHT22;5028;50.974;4.968;2023-06-04T10:25:53;23.50;93.90
9975;DHT22;5028;50.974;4.968;2023-06-04T10:28:25;23.50;93.80
9975;DHT22;5028;50.974;4.968;2023-06-04T10:30:55;24.00;93.30
9975;DHT22;5028;50.974;4.968;2023-06-04T10:33:24;24.50;93.30
9975;DHT22;5028;50.974;4.968;2023-06-04T10:36:16;24.70;92.60
9975;DHT22;5028;50.974;4.968;2023-06-04T10:38:53;24.70;92.40
9975;DHT22;5028;50.974;4.968;2023-06-04T10:41:33;25.30;92.80
9975;DHT22;5028;50.974;4.968;2023-06-04T10:44:02;25.40;91.50
9975;DHT22;5028;50.974;4.968;2023-06-04T10:46:38;24.80;91.20
9975;DHT22;5028;50.974;4.968;2023-06-04T10:49:09;24.40;91.20
9975;DHT22;5028;50.974;4.968;2023-06-04T10:51:38;24.00;91.40
9975;DHT22;5028;50.974;4.968;2023-06-04T10:54:08;24.20;92.00
9975;DHT22;5028;50.974;4.968;2023-06-04T10:56:38;24.30;91.40
9975;DHT22;5028;50.974;4.968;2023-06-04T10:59:14;24.20;90.70
9975;DHT22;5028;50.974;4.968;2023-06-04T11:01:45;24.10;91.40
9975;DHT22;5028;50.974;4.968;2023-06-04T11:04:21;24.60;91.60
9975;DHT22;5028;50.974;4.968;2023-06-04T11:07:00;24.80;90.60
9975;DHT22;5028;50.974;4.968;2023-06-04T11:09:32;24.80;90.90
9975;DHT22;5028;50.974;4.968;2023-06-04T11:12:05;24.70;91.70
9975;DHT22;5028;50.974;4.968;2023-06-04T11:14:34;24.30;90.40
9975;DHT22;5028;50.974;4.968;2023-06-04T11:17:09;24.10;89.80
9975;DHT22;5028;50.974;4.968;2023-06-04T11:19:39;24.30;91.30
9975;DHT22;5028;50.974;4.968;2023-06-04T11:22:10;24.80;91.30
9975;DHT22;5028;50.974;4.968;2023-06-04T11:24:39;25.10;91.10
9975;DHT22;5028;50.974;4.968;2023-06-04T11:27:10;25.60;91.00
9975;DHT22;5028;50.974;4.968;2023-06-04T11:29:59;25.60;87.80
9975;DHT22;5028;50.974;4.968;2023-06-04T11:32:29;25.40;87.00
9975;DHT22;5028;50.974;4.968;2023-06-04T11:35:08;25.20;87.10
9975;DHT22;5028;50.974;4.968;2023-06-04T11:37:39;25.30;89.90
9975;DHT22;5028;50.974;4.968;2023-06-04T11:40:16;25.40;89.40
9975;DHT22;5028;50.974;4.968;2023-06-04T11:42:47;25.30;88.60
9975;DHT22;5028;50.974;4.968;2023-06-04T11:45:18;25.00;89.50
9975;DHT22;5028;50.974;4.968;2023-06-04T11:47:48;25.00;88.50
9975;DHT22;5028;50.974;4.968;2023-06-04T11:50:17;24.90;89.80
9975;DHT22;5028;50.974;4.968;2023-06-04T11:52:46;24.90;89.80
9975;DHT22;5028;50.974;4.968;2023-06-04T11:55:16;25.00;89.60
9975;DHT22;5028;50.974;4.968;2023-06-04T11:57:49;24.80;89.50
9975;DHT22;5028;50.974;4.968;2023-06-04T12:00:18;25.00;90.10
9975;DHT22;5028;50.974;4.968;2023-06-04T12:02:50;24.90;89.70
9975;DHT22;5028;50.974;4.968;2023-06-04T12:05:21;24.90;90.60
9975;DHT22;5028;50.974;4.968;2023-06-04T12:07:51;25.20;90.10
9975;DHT22;5028;50.974;4.968;2023-06-04T12:10:21;25.50;90.30
9975;DHT22;5028;50.974;4.968;2023-06-04T12:12:55;25.80;89.10
9975;DHT22;5028;50.974;4.968;2023-06-04T12:15:24;26.10;88.70
9975;DHT22;5028;50.974;4.968;2023-06-04T12:17:54;25.70;87.00
9975;DHT22;5028;50.974;4.968;2023-06-04T12:20:33;25.40;86.70
9975;DHT22;5028;50.974;4.968;2023-06-04T12:23:03;25.00;87.40
9975;DHT22;5028;50.974;4.968;2023-06-04T12:25:34;25.10;87.30
9975;DHT22;5028;50.974;4.968;2023-06-04T12:28:07;25.50;86.20
9975;DHT22;5028;50.974;4.968;2023-06-04T12:30:45;25.30;86.10
9975;DHT22;5028;50.974;4.968;2023-06-04T12:33:13;25.40;86.10
9975;DHT22;5028;50.974;4.968;2023-06-04T12:35:45;25.60;85.80
9975;DHT22;5028;50.974;4.968;2023-06-04T12:38:14;25.70;85.60
9975;DHT22;5028;50.974;4.968;2023-06-04T12:40:43;26.10;86.00
9975;DHT22;5028;50.974;4.968;2023-06-04T12:43:13;26.00;85.20
9975;DHT22;5028;50.974;4.968;2023-06-04T12:45:44;25.90;83.50
9975;DHT22;5028;50.974;4.968;2023-06-04T12:48:14;26.00;83.50
9975;DHT22;5028;50.974;4.968;2023-06-04T12:50:43;25.70;83.70
9975;DHT22;5028;50.974;4.968;2023-06-04T12:53:12;25.70;84.10
9975;DHT22;5028;50.974;4.968;2023-06-04T12:55:40;25.90;85.40
9975;DHT22;5028;50.974;4.968;2023-06-04T12:58:10;25.90;84.70
9975;DHT22;5028;50.974;4.968;2023-06-04T13:00:41;25.90;85.80
9975;DHT22;5028;50.974;4.968;2023-06-04T13:03:10;26.40;85.10
9975;DHT22;5028;50.974;4.968;2023-06-04T13:05:38;26.80;84.90
9975;DHT22;5028;50.974;4.968;2023-06-04T13:08:07;26.80;84.30
9975;DHT22;5028;50.974;4.968;2023-06-04T13:10:36;26.80;84.70
9975;DHT22;5028;50.974;4.968;2023-06-04T13:13:04;26.90;83.20
9975;DHT22;5028;50.974;4.968;2023-06-04T13:15:35;27.20;83.00
9975;DHT22;5028;50.974;4.968;2023-06-04T13:18:06;27.30;84.10
9975;DHT22;5028;50.974;4.968;2023-06-04T13:20:35;27.30;82.40
9975;DHT22;5028;50.974;4.968;2023-06-04T13:23:05;26.80;81.70
9975;DHT22;5028;50.974;4.968;2023-06-04T13:25:34;26.80;82.50
9975;DHT22;5028;50.974;4.968;2023-06-04T13:28:03;26.50;82.50
9975;DHT22;5028;50.974;4.968;2023-06-04T13:30:32;26.00;83.20
9975;DHT22;5028;50.974;4.968;2023-06-04T13:33:01;25.90;83.20
9975;DHT22;5028;50.974;4.968;2023-06-04T13:35:31;25.70;83.20
9975;DHT22;5028;50.974;4.968;2023-06-04T13:38:01;25.90;82.70
9975;DHT22;5028;50.974;4.968;2023-06-04T13:40:30;26.20;82.20
9975;DHT22;5028;50.974;4.968;2023-06-04T13:42:59;26.50;82.30
9975;DHT22;5028;50.974;4.968;2023-06-04T13:45:27;26.80;80.70
9975;DHT22;5028;50.974;4.968;2023-06-04T13:47:56;26.80;81.10
9975;DHT22;5028;50.974;4.968;2023-06-04T13:50:31;27.10;81.00
9975;DHT22;5028;50.974;4.968;2023-06-04T13:53:00;27.10;79.60
9975;DHT22;5028;50.974;4.968;2023-06-04T13:55:30;26.80;79.00
9975;DHT22;5028;50.974;4.968;2023-06-04T13:57:59;26.60;77.60
9975;DHT22;5028;50.974;4.968;2023-06-04T14:00:28;26.50;79.40
9975;DHT22;5028;50.974;4.968;2023-06-04T14:02:57;26.90;78.50
9975;DHT22;5028;50.974;4.968;2023-06-04T14:05:26;27.10;79.70
9975;DHT22;5028;50.974;4.968;2023-06-04T14:07:57;27.20;77.60
9975;DHT22;5028;50.974;4.968;2023-06-04T14:10:26;27.20;77.90
9975;DHT22;5028;50.974;4.968;2023-06-04T14:12:55;27.20;79.20
9975;DHT22;5028;50.974;4.968;2023-06-04T14:15:24;26.80;79.70
9975;DHT22;5028;50.974;4.968;2023-06-04T14:17:53;26.90;80.80
9975;DHT22;5028;50.974;4.968;2023-06-04T14:20:21;26.60;78.00
9975;DHT22;5028;50.974;4.968;2023-06-04T14:22:50;26.30;77.90
9975;DHT22;5028;50.974;4.968;2023-06-04T14:25:21;26.10;78.50
9975;DHT22;5028;50.974;4.968;2023-06-04T14:27:50;25.80;78.60
9975;DHT22;5028;50.974;4.968;2023-06-04T14:30:18;25.90;79.40
9975;DHT22;5028;50.974;4.968;2023-06-04T14:32:49;25.80;78.50
9975;DHT22;5028;50.974;4.968;2023-06-04T14:35:18;25.70;78.60
9975;DHT22;5028;50.974;4.968;2023-06-04T14:37:47;25.70;78.50
9975;DHT22;5028;50.974;4.968;2023-06-04T14:40:15;25.60;77.00
9975;DHT22;5028;50.974;4.968;2023-06-04T14:42:45;25.70;77.80
9975;DHT22;5028;50.974;4.968;2023-06-04T14:45:14;25.80;76.00
9975;DHT22;5028;50.974;4.968;2023-06-04T14:47:43;25.70;77.50
9975;DHT22;5028;50.974;4.968;2023-06-04T14:50:12;25.40;78.50
9975;DHT22;5028;50.974;4.968;2023-06-04T14:52:41;25.20;79.30
9975;DHT22;5028;50.974;4.968;2023-06-04T14:55:10;25.10;79.70
9975;DHT22;5028;50.974;4.968;2023-06-04T14:57:38;25.50;80.90
9975;DHT22;5028;50.974;4.968;2023-06-04T15:00:10;25.70;80.60
9975;DHT22;5028;50.974;4.968;2023-06-04T15:02:38;25.80;79.20
9975;DHT22;5028;50.974;4.968;2023-06-04T15:05:08;25.70;80.50
9975;DHT22;5028;50.974;4.968;2023-06-04T15:07:36;25.50;79.80
9975;DHT22;5028;50.974;4.968;2023-06-04T15:10:06;25.40;80.30
9975;DHT22;5028;50.974;4.968;2023-06-04T15:12:35;25.10;80.00
9975;DHT22;5028;50.974;4.968;2023-06-04T15:15:07;24.90;81.20
9975;DHT22;5028;50.974;4.968;2023-06-04T15:17:39;24.80;80.80
9975;DHT22;5028;50.974;4.968;2023-06-04T15:20:12;24.60;81.50
9975;DHT22;5028;50.974;4.968;2023-06-04T15:22:40;24.50;81.60
9975;DHT22;5028;50.974;4.968;2023-06-04T15:25:09;24.50;82.00
9975;DHT22;5028;50.974;4.968;2023-06-04T15:27:37;24.50;80.80
9975;DHT22;5028;50.974;4.968;2023-06-04T15:30:08;24.50;81.80
9975;DHT22;5028;50.974;4.968;2023-06-04T15:32:38;24.50;81.60
9975;DHT22;5028;50.974;4.968;2023-06-04T15:35:09;24.40;80.50
9975;DHT22;5028;50.974;4.968;2023-06-04T15:37:39;24.50;81.40
9975;DHT22;5028;50.974;4.968;2023-06-04T15:40:08;24.60;81.40
9975;DHT22;5028;50.974;4.968;2023-06-04T15:42:37;24.70;80.10
9975;DHT22;5028;50.974;4.968;2023-06-04T15:45:07;24.60;81.10
9975;DHT22;5028;50.974;4.968;2023-06-04T15:47:36;24.70;81.20
9975;DHT22;5028;50.974;4.968;2023-06-04T15:50:08;24.60;80.50
9975;DHT22;5028;50.974;4.968;2023-06-04T15:52:37;24.60;80.30
9975;DHT22;5028;50.974;4.968;2023-06-04T15:55:06;24.50;80.70
9975;DHT22;5028;50.974;4.968;2023-06-04T15:57:35;24.30;80.60
9975;DHT22;5028;50.974;4.968;2023-06-04T16:00:04;24.30;82.00
9975;DHT22;5028;50.974;4.968;2023-06-04T16:02:33;24.20;81.60
9975;DHT22;5028;50.974;4.968;2023-06-04T16:05:02;24.20;81.70
9975;DHT22;5028;50.974;4.968;2023-06-04T16:07:33;24.20;83.50
9975;DHT22;5028;50.974;4.968;2023-06-04T16:10:02;24.20;81.70
9975;DHT22;5028;50.974;4.968;2023-06-04T16:12:31;24.10;82.60
9975;DHT22;5028;50.974;4.968;2023-06-04T16:14:59;24.00;82.30
9975;DHT22;5028;50.974;4.968;2023-06-04T16:17:28;23.90;83.00
9975;DHT22;5028;50.974;4.968;2023-06-04T16:19:57;23.90;83.00